Météo aviation pour un terrain ou une ville
Choisir un ou une

Vous pouvez entrer RAPIDEMENT les premières lettres pour sélectionner

Aéroport choisi : LFCK - CASTRES - MAZAMET
Visibilité


Supérieure à 10 km

Soleil : Lever à 07:47 Coucher à 19:35
Durée du jour : 11h 48 (-3 minute(s))
Date et heure locale 27/09/2020 03:50
Il fait nuit
Distance Terre - Lune : 392556 kms

Phase actuelle: Gibeuse montante
Température
Pression
Humidité
Force du vent
Direction du vent
Temps présent
Nuageux

Ensoleillement : 40 %
Heure d'observation : 2020/09/27 03:30. Soit il y a 0 H 20 mn
Décodage METAR, TAF et désign par Philippe Guiraud
METAR : 2020/09/27 01:30 LFCK 270130Z AUTO 31011KT 9999 OVC011 08/07 Q1014
Prévisions (décodage des TAF)
Pas de prévisions (TAF) pour cette station
Historique pour les derniéres 24 heures
Carte satellite actuelle
Satellite Image